createdAt,value
2023-09-16T00:02:00.415Z,100728.91
2023-09-16T00:04:27.821Z,100737.31
2023-09-16T00:06:54.851Z,100722.28
2023-09-16T00:09:22.234Z,100742.47
2023-09-16T00:11:49.389Z,100729.44
2023-09-16T00:14:19.708Z,100731.13
2023-09-16T00:16:47.215Z,100732.34
2023-09-16T00:19:14.443Z,100736.91
2023-09-16T00:21:43.038Z,100744.50
2023-09-16T00:24:11.298Z,100746.38
2023-09-16T00:26:40.517Z,100736.97
2023-09-16T00:29:08.106Z,100737.94
2023-09-16T00:31:35.674Z,100742.16
2023-09-16T00:34:02.718Z,100737.72
2023-09-16T00:36:30.375Z,100744.09
2023-09-16T00:38:57.662Z,100738.19
2023-09-16T00:41:24.887Z,100756.94
2023-09-16T00:43:52.035Z,100741.09
2023-09-16T00:46:19.262Z,100744.72
2023-09-16T00:48:47.126Z,100762.47
2023-09-16T00:51:17.286Z,100754.44
2023-09-16T00:53:46.258Z,100759.78
2023-09-16T00:56:15.186Z,100766.97
2023-09-16T00:58:42.691Z,100752.84
2023-09-16T01:01:11.091Z,100762.00
2023-09-16T01:03:38.907Z,100756.00
2023-09-16T01:06:07.624Z,100749.78
2023-09-16T01:08:38.312Z,100749.13
2023-09-16T01:11:06.416Z,100748.38
2023-09-16T01:13:34.827Z,100750.19
2023-09-16T01:16:14.998Z,100745.69
2023-09-16T01:18:47.832Z,100745.50
2023-09-16T01:21:16.579Z,100760.53
2023-09-16T01:23:45.336Z,100750.47
2023-09-16T01:26:12.251Z,100745.44
2023-09-16T01:28:39.683Z,100735.56
2023-09-16T01:31:08.711Z,100752.19
2023-09-16T01:33:45.144Z,100751.16
2023-09-16T01:36:16.000Z,100751.28
2023-09-16T01:38:45.697Z,100760.34
2023-09-16T01:41:14.608Z,100752.28
2023-09-16T01:43:42.186Z,100754.47
2023-09-16T01:46:11.578Z,100757.91
2023-09-16T01:48:46.542Z,100761.63
2023-09-16T01:51:15.457Z,100760.94
2023-09-16T01:53:42.806Z,100757.97
2023-09-16T01:56:09.964Z,100765.16
2023-09-16T01:58:37.107Z,100769.59
2023-09-16T02:01:12.611Z,100769.72
2023-09-16T02:03:40.124Z,100775.22
2023-09-16T02:06:07.880Z,100763.91
2023-09-16T02:08:35.446Z,100761.34
2023-09-16T02:11:03.843Z,100758.97
2023-09-16T02:13:33.662Z,100764.06
2023-09-16T02:16:00.729Z,100773.06
2023-09-16T02:18:28.004Z,100765.03
2023-09-16T02:20:55.092Z,100768.41
2023-09-16T02:23:23.269Z,100771.34
2023-09-16T02:25:50.362Z,100765.22
2023-09-16T02:28:17.612Z,100769.78
2023-09-16T02:30:44.561Z,100764.47
2023-09-16T02:33:11.803Z,100752.25
2023-09-16T02:35:40.990Z,100768.97
2023-09-16T02:38:08.460Z,100768.84
2023-09-16T02:40:40.862Z,100762.03
2023-09-16T02:43:08.548Z,100757.81
2023-09-16T02:45:42.884Z,100765.78
2023-09-16T02:48:10.173Z,100765.78
2023-09-16T02:50:40.888Z,100758.91
2023-09-16T02:53:07.798Z,100752.00
2023-09-16T02:55:35.056Z,100756.81
2023-09-16T02:58:02.544Z,100735.06
2023-09-16T03:00:30.166Z,100749.22
2023-09-16T03:02:57.772Z,100752.78
2023-09-16T03:05:25.074Z,100757.44
2023-09-16T03:07:52.466Z,100746.78
2023-09-16T03:10:19.974Z,100764.38
2023-09-16T03:12:47.126Z,100771.53
2023-09-16T03:15:14.363Z,100771.53
2023-09-16T03:17:51.008Z,100751.44
2023-09-16T03:20:21.656Z,100768.03
2023-09-16T03:22:48.817Z,100763.59
2023-09-16T03:25:15.969Z,100763.69
2023-09-16T03:27:42.949Z,100756.72
2023-09-16T03:30:10.384Z,100769.94
2023-09-16T03:32:40.987Z,100766.72
2023-09-16T03:35:08.154Z,100765.19
2023-09-16T03:37:35.308Z,100763.34
2023-09-16T03:40:02.507Z,100765.31
2023-09-16T03:42:29.542Z,100767.59
2023-09-16T03:44:56.735Z,100765.97
2023-09-16T03:47:23.843Z,100774.06
2023-09-16T03:49:50.727Z,100756.19
2023-09-16T03:52:18.182Z,100768.34
2023-09-16T03:54:45.404Z,100772.78
2023-09-16T03:57:12.535Z,100775.34
2023-09-16T03:59:39.691Z,100775.22
2023-09-16T04:02:06.865Z,100776.75
2023-09-16T04:04:34.097Z,100767.69
2023-09-16T04:07:01.290Z,100753.59
2023-09-16T04:09:28.649Z,100769.34
2023-09-16T04:11:55.508Z,100768.44
2023-09-16T04:14:22.402Z,100756.09
2023-09-16T04:16:49.873Z,100755.34
2023-09-16T04:19:17.022Z,100749.22
2023-09-16T04:21:44.082Z,100747.56
2023-09-16T04:24:13.053Z,100748.44
2023-09-16T04:26:40.204Z,100759.84
2023-09-16T04:29:07.331Z,100762.78
2023-09-16T04:31:34.251Z,100768.94
2023-09-16T04:34:01.642Z,100768.87
2023-09-16T04:36:28.681Z,100771.56
2023-09-16T04:38:55.876Z,100778.72
2023-09-16T04:41:23.087Z,100774.09
2023-09-16T04:43:51.266Z,100760.50
2023-09-16T04:46:19.758Z,100775.53
2023-09-16T04:48:48.301Z,100782.81
2023-09-16T04:51:15.819Z,100767.12
2023-09-16T04:53:42.794Z,100781.19
2023-09-16T04:56:10.457Z,100762.84
2023-09-16T04:58:38.183Z,100768.94
2023-09-16T05:01:07.907Z,100777.78
2023-09-16T05:03:35.290Z,100765.50
2023-09-16T05:06:03.758Z,100783.75
2023-09-16T05:08:32.249Z,100791.78
2023-09-16T05:10:59.233Z,100793.41
2023-09-16T05:13:26.745Z,100788.63
2023-09-16T05:15:53.959Z,100789.09
2023-09-16T05:18:21.127Z,100781.28
2023-09-16T05:20:52.034Z,100773.03
2023-09-16T05:23:19.734Z,100780.06
2023-09-16T05:25:50.984Z,100780.75
2023-09-16T05:28:18.637Z,100779.25
2023-09-16T05:30:46.238Z,100770.75
2023-09-16T05:33:13.522Z,100783.31
2023-09-16T05:35:41.807Z,100790.38
2023-09-16T05:38:09.470Z,100792.25
2023-09-16T05:40:37.579Z,100797.13
2023-09-16T05:43:04.911Z,100794.06
2023-09-16T05:45:32.601Z,100799.87
2023-09-16T05:48:04.032Z,100793.66
2023-09-16T05:50:32.161Z,100796.16
2023-09-16T05:52:59.214Z,100786.19
2023-09-16T05:55:26.465Z,100797.62
2023-09-16T05:57:53.721Z,100789.13
2023-09-16T06:00:20.890Z,100809.81
2023-09-16T06:02:47.851Z,100791.12
2023-09-16T06:05:14.985Z,100791.88
2023-09-16T06:07:43.204Z,100804.97
2023-09-16T06:10:11.155Z,100804.00
2023-09-16T06:12:38.290Z,100795.50
2023-09-16T06:15:05.834Z,100796.91
2023-09-16T06:17:32.685Z,100807.25
2023-09-16T06:19:59.943Z,100790.28
2023-09-16T06:22:27.545Z,100810.16
2023-09-16T06:24:55.377Z,100798.47
2023-09-16T06:27:23.088Z,100802.97
2023-09-16T06:29:52.026Z,100794.75
2023-09-16T06:34:47.555Z,100786.97
2023-09-16T06:37:14.681Z,100799.25
2023-09-16T06:39:41.923Z,100786.50
2023-09-16T06:42:09.245Z,100788.97
2023-09-16T06:44:36.384Z,100782.41
2023-09-16T06:47:03.753Z,100785.50
2023-09-16T06:49:30.954Z,100781.28
2023-09-16T06:51:57.871Z,100800.38
2023-09-16T06:54:25.031Z,100774.06
2023-09-16T06:56:52.564Z,100798.12
2023-09-16T06:59:19.437Z,100787.13
2023-09-16T07:01:46.359Z,100791.75
2023-09-16T07:04:13.630Z,100780.81
2023-09-16T07:06:40.809Z,100782.25
2023-09-16T07:09:08.199Z,100795.53
2023-09-16T07:11:35.087Z,100789.91
2023-09-16T07:14:02.508Z,100797.69
2023-09-16T07:16:44.727Z,100800.91
2023-09-16T07:19:12.081Z,100811.47
2023-09-16T07:21:39.343Z,100814.25
2023-09-16T07:24:06.896Z,100811.09
2023-09-16T07:26:33.958Z,100814.81
2023-09-16T07:29:01.651Z,100809.53
2023-09-16T07:31:30.142Z,100812.87
2023-09-16T07:33:57.466Z,100809.75
2023-09-16T07:36:24.687Z,100802.78
2023-09-16T07:38:52.162Z,100800.31
2023-09-16T07:41:19.889Z,100797.91
2023-09-16T07:43:47.045Z,100801.56
2023-09-16T07:46:14.283Z,100791.47
2023-09-16T07:48:41.529Z,100806.78
2023-09-16T07:51:08.911Z,100789.34
2023-09-16T07:53:36.022Z,100798.69
2023-09-16T07:56:03.189Z,100786.09
2023-09-16T07:58:30.668Z,100785.44
2023-09-16T08:00:57.947Z,100797.13
2023-09-16T08:03:25.267Z,100801.47
2023-09-16T08:05:54.856Z,100795.22
2023-09-16T08:08:22.016Z,100794.16
2023-09-16T08:10:51.359Z,100791.66
2023-09-16T08:13:19.555Z,100798.25
2023-09-16T08:15:47.067Z,100789.31
2023-09-16T08:18:14.506Z,100789.09
2023-09-16T08:20:41.978Z,100788.41
2023-09-16T08:23:10.572Z,100787.94
2023-09-16T08:25:37.606Z,100793.06
2023-09-16T08:28:05.568Z,100780.56
2023-09-16T08:30:32.714Z,100788.63
2023-09-16T08:32:59.786Z,100770.88
2023-09-16T08:35:27.959Z,100775.66
2023-09-16T08:38:00.186Z,100781.06
2023-09-16T08:40:30.663Z,100786.03
2023-09-16T08:43:15.696Z,100795.47
2023-09-16T08:45:57.076Z,100792.84
2023-09-16T08:48:26.817Z,100785.91
2023-09-16T08:50:57.099Z,100785.78
2023-09-16T08:53:26.482Z,100786.69
2023-09-16T08:55:53.946Z,100787.09
2023-09-16T08:58:22.416Z,100787.34
2023-09-16T09:00:49.709Z,100779.72
2023-09-16T09:03:17.343Z,100788.31
2023-09-16T09:05:46.004Z,100788.69
2023-09-16T09:08:13.249Z,100793.69
2023-09-16T09:10:43.711Z,100792.97
2023-09-16T09:13:14.302Z,100787.75
2023-09-16T09:15:42.961Z,100781.34
2023-09-16T09:18:12.579Z,100788.00
2023-09-16T09:20:39.987Z,100788.66
2023-09-16T09:23:07.271Z,100786.78
2023-09-16T09:25:37.437Z,100791.34
2023-09-16T09:28:06.314Z,100782.84
2023-09-16T09:30:33.663Z,100785.19
2023-09-16T09:33:01.792Z,100772.31
2023-09-16T09:35:31.277Z,100779.00
2023-09-16T09:37:59.360Z,100766.41
2023-09-16T09:40:27.841Z,100778.41
2023-09-16T09:42:58.872Z,100777.38
2023-09-16T09:45:28.670Z,100768.53
2023-09-16T09:47:56.926Z,100758.41
2023-09-16T09:50:24.873Z,100766.25
2023-09-16T09:52:54.819Z,100779.97
2023-09-16T09:55:29.363Z,100777.41
2023-09-16T09:57:57.170Z,100767.22
2023-09-16T10:00:25.377Z,100778.53
2023-09-16T10:02:52.534Z,100772.03
2023-09-16T10:05:21.528Z,100762.09
2023-09-16T10:07:49.228Z,100775.63
2023-09-16T10:10:21.373Z,100771.75
2023-09-16T10:12:54.411Z,100760.50
2023-09-16T10:15:26.720Z,100752.97
2023-09-16T10:17:54.820Z,100747.50
2023-09-16T10:20:23.220Z,100752.03
2023-09-16T10:22:51.778Z,100744.53
2023-09-16T10:25:19.341Z,100755.59
2023-09-16T10:27:53.365Z,100742.44
2023-09-16T10:30:21.508Z,100754.28
2023-09-16T10:32:49.381Z,100737.69
2023-09-16T10:35:17.742Z,100751.19
2023-09-16T10:37:45.685Z,100752.63
2023-09-16T10:40:14.940Z,100744.41
2023-09-16T10:42:43.190Z,100743.56
2023-09-16T10:45:13.031Z,100743.09
2023-09-16T10:47:40.842Z,100740.69
2023-09-16T10:50:08.577Z,100735.59
2023-09-16T10:52:48.786Z,100735.53
2023-09-16T10:55:23.973Z,100737.34
2023-09-16T10:58:02.446Z,100722.22
2023-09-16T11:00:38.814Z,100735.56
2023-09-16T11:03:06.740Z,100728.66
2023-09-16T11:05:36.191Z,100740.34
2023-09-16T11:08:03.909Z,100741.22
2023-09-16T11:10:32.078Z,100726.91
2023-09-16T11:13:01.133Z,100721.72
2023-09-16T11:15:35.872Z,100728.84
2023-09-16T11:18:04.734Z,100728.00
2023-09-16T11:20:37.327Z,100724.19
2023-09-16T11:23:08.882Z,100723.06
2023-09-16T11:25:38.386Z,100723.19
2023-09-16T11:28:17.793Z,100715.63
2023-09-16T11:30:59.793Z,100691.59
2023-09-16T11:33:40.802Z,100706.25
2023-09-16T11:36:14.107Z,100695.22
2023-09-16T11:38:56.627Z,100695.97
2023-09-16T11:41:23.902Z,100686.69
2023-09-16T11:43:51.493Z,100697.94
2023-09-16T11:46:18.900Z,100701.41
2023-09-16T11:48:57.342Z,100690.72
2023-09-16T11:51:26.767Z,100694.06
2023-09-16T11:53:55.803Z,100685.53
2023-09-16T11:56:25.026Z,100684.91
2023-09-16T11:58:56.714Z,100668.97
2023-09-16T12:01:31.440Z,100669.88
2023-09-16T12:04:00.481Z,100678.66
2023-09-16T12:06:29.168Z,100663.56
2023-09-16T12:08:58.516Z,100676.66
2023-09-16T12:11:28.442Z,100681.88
2023-09-16T12:13:56.255Z,100674.56
2023-09-16T12:16:24.304Z,100666.19
2023-09-16T12:18:52.114Z,100655.94
2023-09-16T12:21:19.985Z,100648.09
2023-09-16T12:23:49.276Z,100654.28
2023-09-16T12:26:16.723Z,100659.16
2023-09-16T12:28:44.120Z,100661.16
2023-09-16T12:31:12.666Z,100653.31
2023-09-16T12:33:41.877Z,100657.41
2023-09-16T12:36:09.792Z,100641.13
2023-09-16T12:38:39.187Z,100647.41
2023-09-16T12:41:07.023Z,100647.13
2023-09-16T12:43:35.158Z,100647.72
2023-09-16T12:46:05.451Z,100655.72
2023-09-16T12:48:34.224Z,100646.53
2023-09-16T12:51:02.300Z,100654.72
2023-09-16T12:53:31.423Z,100632.75
2023-09-16T12:55:58.502Z,100644.09
2023-09-16T12:58:25.592Z,100651.25
2023-09-16T13:00:53.203Z,100645.75
2023-09-16T13:03:24.420Z,100643.53
2023-09-16T13:06:01.080Z,100647.37
2023-09-16T13:08:28.479Z,100650.53
2023-09-16T13:10:55.777Z,100651.06
2023-09-16T13:13:24.137Z,100649.53
2023-09-16T13:15:52.683Z,100643.38
2023-09-16T13:18:21.235Z,100636.31
2023-09-16T13:20:54.447Z,100640.13
2023-09-16T13:23:26.723Z,100639.88
2023-09-16T13:25:57.360Z,100635.59
2023-09-16T13:28:25.719Z,100643.38
2023-09-16T13:30:54.882Z,100632.00
2023-09-16T13:33:55.372Z,100643.38
2023-09-16T13:36:24.921Z,100642.50
2023-09-16T13:38:53.021Z,100645.53
2023-09-16T13:41:22.340Z,100639.25
2023-09-16T13:43:49.869Z,100650.66
2023-09-16T13:46:18.519Z,100649.78
2023-09-16T13:48:50.129Z,100638.69
2023-09-16T13:51:18.834Z,100651.94
2023-09-16T13:53:46.256Z,100642.16
2023-09-16T13:56:14.680Z,100639.34
2023-09-16T13:58:42.755Z,100633.75
2023-09-16T14:01:10.345Z,100635.59
2023-09-16T14:03:37.821Z,100641.72
2023-09-16T14:06:07.039Z,100648.03
2023-09-16T14:08:36.069Z,100640.53
2023-09-16T14:11:06.289Z,100624.47
2023-09-16T14:13:34.351Z,100636.50
2023-09-16T14:16:01.762Z,100630.03
2023-09-16T14:18:29.487Z,100634.47
2023-09-16T14:20:56.973Z,100625.03
2023-09-16T14:23:24.539Z,100629.81
2023-09-16T14:25:52.469Z,100628.38
2023-09-16T14:28:20.140Z,100628.84
2023-09-16T14:30:47.673Z,100630.56
2023-09-16T14:33:14.997Z,100635.12
2023-09-16T14:35:42.712Z,100638.66
2023-09-16T14:38:10.197Z,100641.72
2023-09-16T14:40:38.597Z,100634.59
2023-09-16T14:43:07.758Z,100636.59
2023-09-16T14:45:35.233Z,100632.66
2023-09-16T14:48:04.195Z,100629.72
2023-09-16T14:50:33.307Z,100644.84
2023-09-16T14:53:02.943Z,100633.16
2023-09-16T14:55:33.576Z,100642.00
2023-09-16T14:58:01.907Z,100636.28
2023-09-16T15:00:30.150Z,100643.66
2023-09-16T15:02:57.756Z,100641.22
2023-09-16T15:05:25.403Z,100642.41
2023-09-16T15:07:53.344Z,100638.84
2023-09-16T15:10:21.316Z,100635.78
2023-09-16T15:12:48.736Z,100630.44
2023-09-16T15:15:16.252Z,100639.75
2023-09-16T15:17:43.838Z,100644.44
2023-09-16T15:20:14.516Z,100636.75
2023-09-16T15:22:42.250Z,100643.22
2023-09-16T15:25:10.108Z,100643.53
2023-09-16T15:27:37.647Z,100640.66
2023-09-16T15:30:08.823Z,100637.09
2023-09-16T15:32:46.169Z,100637.97
2023-09-16T15:35:14.791Z,100636.03
2023-09-16T15:37:42.717Z,100638.66
2023-09-16T15:40:10.852Z,100637.41
2023-09-16T15:42:39.252Z,100633.16
2023-09-16T15:45:07.054Z,100633.06
2023-09-16T15:47:35.025Z,100617.34
2023-09-16T15:50:02.562Z,100632.41
2023-09-16T15:52:30.182Z,100627.06
2023-09-16T15:54:57.732Z,100616.06
2023-09-16T15:57:25.285Z,100613.09
2023-09-16T15:59:52.279Z,100633.37
2023-09-16T16:02:19.764Z,100625.66
2023-09-16T16:04:47.198Z,100619.25
2023-09-16T16:07:16.931Z,100600.09
2023-09-16T16:09:44.677Z,100625.47
2023-09-16T16:12:12.167Z,100611.94
2023-09-16T16:14:39.637Z,100622.28
2023-09-16T16:17:21.541Z,100616.31
2023-09-16T16:19:49.618Z,100626.81
2023-09-16T16:22:18.006Z,100622.56
2023-09-16T16:24:45.361Z,100620.53
2023-09-16T16:27:12.456Z,100614.47
2023-09-16T16:29:41.657Z,100618.22
2023-09-16T16:32:08.897Z,100611.28
2023-09-16T16:34:36.545Z,100612.81
2023-09-16T16:37:04.454Z,100617.25
2023-09-16T16:39:31.407Z,100611.94
2023-09-16T16:41:58.898Z,100611.94
2023-09-16T16:44:26.430Z,100604.88
2023-09-16T16:46:59.856Z,100608.88
2023-09-16T16:49:29.985Z,100603.53
2023-09-16T16:51:57.673Z,100584.41
2023-09-16T16:54:25.817Z,100594.97
2023-09-16T16:56:53.041Z,100573.41
2023-09-16T16:59:21.089Z,100590.59
2023-09-16T17:01:48.790Z,100580.28
2023-09-16T17:04:16.620Z,100589.03
2023-09-16T17:06:44.205Z,100582.41
2023-09-16T17:09:12.793Z,100589.91
2023-09-16T17:11:40.371Z,100587.66
2023-09-16T17:14:07.416Z,100588.63
2023-09-16T17:16:34.631Z,100597.09
2023-09-16T17:19:02.362Z,100580.97
2023-09-16T17:21:29.909Z,100567.56
2023-09-16T17:23:57.337Z,100586.50
2023-09-16T17:26:24.509Z,100578.53
2023-09-16T17:28:54.294Z,100588.53
2023-09-16T17:31:23.713Z,100606.03
2023-09-16T17:33:51.411Z,100601.28
2023-09-16T17:36:19.401Z,100607.91
2023-09-16T17:38:50.907Z,100612.78
2023-09-16T17:41:19.565Z,100614.59
2023-09-16T17:43:49.180Z,100614.34
2023-09-16T17:46:18.051Z,100623.13
2023-09-16T17:48:45.910Z,100617.75
2023-09-16T17:51:13.675Z,100615.75
2023-09-16T17:53:41.127Z,100613.13
2023-09-16T17:56:08.375Z,100619.13
2023-09-16T17:58:37.529Z,100610.59
2023-09-16T18:01:05.723Z,100619.66
2023-09-16T18:03:33.443Z,100612.44
2023-09-16T18:06:00.896Z,100607.50
2023-09-16T18:08:29.978Z,100620.97
2023-09-16T18:10:57.180Z,100631.91
2023-09-16T18:13:25.009Z,100633.19
2023-09-16T18:15:53.269Z,100629.59
2023-09-16T18:18:20.511Z,100636.91
2023-09-16T18:20:48.513Z,100638.88
2023-09-16T18:23:15.832Z,100624.56
2023-09-16T18:25:50.635Z,100648.47
2023-09-16T18:28:20.949Z,100639.06
2023-09-16T18:30:51.809Z,100642.06
2023-09-16T18:33:22.400Z,100640.56
2023-09-16T18:35:50.385Z,100643.50
2023-09-16T18:38:20.713Z,100649.97
2023-09-16T18:40:50.422Z,100641.53
2023-09-16T18:43:19.254Z,100638.53
2023-09-16T18:45:47.397Z,100643.00
2023-09-16T18:48:18.191Z,100646.94
2023-09-16T18:50:46.156Z,100643.69
2023-09-16T18:53:14.299Z,100652.94
2023-09-16T18:55:45.860Z,100645.22
2023-09-16T18:58:14.791Z,100639.22
2023-09-16T19:00:43.542Z,100634.31
2023-09-16T19:03:11.727Z,100653.63
2023-09-16T19:05:42.708Z,100640.75
2023-09-16T19:08:13.839Z,100651.72
2023-09-16T19:10:46.080Z,100648.62
2023-09-16T19:13:14.701Z,100636.53
2023-09-16T19:15:42.508Z,100641.88
2023-09-16T19:18:15.088Z,100647.34
2023-09-16T19:20:44.341Z,100643.16
2023-09-16T19:23:12.436Z,100637.91
2023-09-16T19:25:41.177Z,100647.88
2023-09-16T19:28:11.208Z,100639.50
2023-09-16T19:30:39.332Z,100655.50
2023-09-16T19:33:08.861Z,100648.41
2023-09-16T19:35:36.442Z,100655.88
2023-09-16T19:38:05.324Z,100650.13
2023-09-16T19:40:35.046Z,100641.56
2023-09-16T19:43:03.186Z,100651.22
2023-09-16T19:45:31.847Z,100653.84
2023-09-16T19:48:00.092Z,100644.37
2023-09-16T19:50:28.004Z,100661.06
2023-09-16T19:52:55.564Z,100668.72
2023-09-16T19:55:26.912Z,100664.37
2023-09-16T19:57:54.711Z,100661.75
2023-09-16T20:00:23.682Z,100650.63
2023-09-16T20:02:53.742Z,100658.84
2023-09-16T20:05:23.201Z,100662.53
2023-09-16T20:07:51.351Z,100671.28
2023-09-16T20:10:19.386Z,100652.66
2023-09-16T20:12:47.266Z,100675.62
2023-09-16T20:15:16.468Z,100662.72
2023-09-16T20:17:44.502Z,100662.00
2023-09-16T20:20:13.443Z,100667.69
2023-09-16T20:22:42.502Z,100661.56
2023-09-16T20:25:11.474Z,100677.53
2023-09-16T20:27:39.519Z,100656.66
2023-09-16T20:30:08.450Z,100679.53
2023-09-16T20:32:36.573Z,100685.03
2023-09-16T20:35:04.600Z,100679.72
2023-09-16T20:37:32.500Z,100672.97
2023-09-16T20:40:00.285Z,100680.13
2023-09-16T20:42:28.959Z,100674.87
2023-09-16T20:44:56.500Z,100689.97
2023-09-16T20:47:23.487Z,100686.81
2023-09-16T20:49:51.133Z,100696.59
2023-09-16T20:52:18.603Z,100692.09
2023-09-16T20:54:46.358Z,100687.16
2023-09-16T20:57:13.924Z,100689.72
2023-09-16T20:59:41.313Z,100689.09
2023-09-16T21:02:08.698Z,100694.34
2023-09-16T21:04:35.686Z,100685.63
2023-09-16T21:07:02.616Z,100688.50
2023-09-16T21:09:29.812Z,100695.50
2023-09-16T21:11:57.506Z,100685.97
2023-09-16T21:14:24.721Z,100674.66
2023-09-16T21:16:53.047Z,100675.75
2023-09-16T21:19:20.382Z,100668.03
2023-09-16T21:21:47.272Z,100672.38
2023-09-16T21:24:14.734Z,100694.37
2023-09-16T21:26:41.910Z,100678.63
2023-09-16T21:29:09.221Z,100690.00
2023-09-16T21:31:44.002Z,100691.63
2023-09-16T21:34:19.349Z,100685.63
2023-09-16T21:36:46.423Z,100679.84
2023-09-16T21:39:13.629Z,100674.47
2023-09-16T21:41:41.111Z,100676.44
2023-09-16T21:44:08.109Z,100687.06
2023-09-16T21:46:36.461Z,100662.06
2023-09-16T21:49:03.684Z,100687.63
2023-09-16T21:51:30.576Z,100688.50
2023-09-16T21:53:57.950Z,100685.06
2023-09-16T21:56:25.261Z,100685.06
2023-09-16T21:58:52.663Z,100682.91
2023-09-16T22:01:19.794Z,100685.94
2023-09-16T22:03:47.085Z,100686.69
2023-09-16T22:06:14.317Z,100681.34
2023-09-16T22:08:41.467Z,100668.31
2023-09-16T22:11:09.134Z,100675.13
2023-09-16T22:13:36.485Z,100674.56
2023-09-16T22:16:03.589Z,100652.66
2023-09-16T22:18:30.480Z,100667.59
2023-09-16T22:20:57.940Z,100669.28
2023-09-16T22:23:25.109Z,100677.37
2023-09-16T22:26:01.953Z,100677.66
2023-09-16T22:28:29.144Z,100679.56
2023-09-16T22:30:56.205Z,100661.31
2023-09-16T22:33:23.387Z,100685.94
2023-09-16T22:35:50.620Z,100677.16
2023-09-16T22:38:18.203Z,100681.75
2023-09-16T22:40:45.479Z,100682.59
2023-09-16T22:43:12.802Z,100683.53
2023-09-16T22:45:39.961Z,100683.53
2023-09-16T22:48:07.054Z,100689.00
2023-09-16T22:50:34.219Z,100693.38
2023-09-16T22:53:01.202Z,100697.63
2023-09-16T22:55:29.211Z,100684.81
2023-09-16T22:57:56.491Z,100678.78
2023-09-16T23:00:23.649Z,100697.06
2023-09-16T23:02:51.094Z,100694.53
2023-09-16T23:05:18.077Z,100693.03
2023-09-16T23:07:45.306Z,100678.22
2023-09-16T23:10:12.251Z,100697.59
2023-09-16T23:12:39.440Z,100697.72
2023-09-16T23:15:06.936Z,100700.53
2023-09-16T23:17:34.209Z,100700.53
2023-09-16T23:20:01.708Z,100707.84
2023-09-16T23:22:28.661Z,100695.34
2023-09-16T23:24:55.668Z,100696.16
2023-09-16T23:27:22.814Z,100696.28
2023-09-16T23:29:50.059Z,100690.22
2023-09-16T23:32:17.185Z,100693.88
2023-09-16T23:34:44.618Z,100701.03
2023-09-16T23:37:11.885Z,100702.81
2023-09-16T23:39:38.802Z,100676.72
2023-09-16T23:42:06.602Z,100690.03
2023-09-16T23:44:33.802Z,100695.44
2023-09-16T23:47:01.061Z,100699.91
2023-09-16T23:49:28.345Z,100701.56
2023-09-16T23:51:55.875Z,100698.13
2023-09-16T23:54:23.007Z,100697.25
2023-09-16T23:56:49.940Z,100698.37
2023-09-16T23:59:17.842Z,100693.88
